• Join FlightAware (Why Join?)
  • Login
  • US Flag GB Flag 
23:15 EDT


 

Airport Tracker/Info


-or-


 

Live Flight TrackerFlight Track Log ✈ UAL4401 ✈ 28-Apr-2013 ✈ KIAH - KIAD

Flight Track Log - Related Links

Times and Time Zones

All times are in EDT time to prevent confusion due to time zone crossing. See the UAL4401 flight status page for this flight to view local times or setup timezone preferences in your user account.

Time Position Orientation Groundspeed Altitude Reporting Facility
EDT Latitude Longitude Course Direction KTS MPH feet Rate Location/Type
20:39 29.9098 -94.7836 95° East  Level FlightAware Approximate
20:40 29.8976 -94.6452 97° East  Level FlightAware Approximate
20:41 29.8824 -94.5072 97° East  Level FlightAware Approximate
20:42 29.8670 -94.3692 97° East  Level FlightAware Approximate
20:43 29.8500 -94.2354 90° East  Level FlightAware Approximate
20:44 29.8500 -94.0963 90° East  Level FlightAware Approximate
20:45 29.8607 -93.9583 81° East  Level FlightAware Approximate
20:46 29.8725 -93.8202 82° East  Level FlightAware Approximate
20:47 29.8833 -93.6820 90° East  Level FlightAware Approximate
20:48 29.8959 -93.5439 82° East  Level FlightAware Approximate
20:49 29.9121 -93.4061 82° East  Level FlightAware Approximate
20:50 29.9195 -93.2676 78° East  Level FlightAware Approximate
20:51 29.9443 -93.1314 78° East  Level FlightAware Approximate
20:52 29.9589 -92.9934 84° East  Level FlightAware Approximate
20:53 29.9667 -92.8546 90° East  Level FlightAware Approximate
20:54 29.9739 -92.7161 81° East  Level FlightAware Approximate
20:55 29.9874 -92.5780 85° East  Level FlightAware Approximate
20:56 29.9976 -92.4392 85° East  Level FlightAware Approximate
20:57 30.0076 -92.3004 85° East  Level FlightAware Approximate
20:58 30.0174 -92.1616 85° East  Level FlightAware Approximate
20:59 30.0271 -92.0228 85° East  Level FlightAware Approximate
21:00 30.0367 -91.8839 85° East  Level FlightAware Approximate
21:01 30.0461 -91.7450 85° East  Level FlightAware Approximate
21:02 30.0553 -91.6061 86° East  Level FlightAware Approximate
21:03 30.0645 -91.4672 86° East  Level FlightAware Approximate
21:04 30.0741 -91.3283 85° East  Level FlightAware Approximate
21:05 30.0837 -91.1893 85° East  Level FlightAware Approximate
21:06 30.0932 -91.0504 85° East  Level FlightAware Approximate
21:07 30.1093 -90.9128 74° East  Level FlightAware Approximate
21:08 30.1429 -90.7789 74° East  Level FlightAware Approximate
21:09 30.1763 -90.6449 74° East  Level FlightAware Approximate
21:10 30.2098 -90.5108 74° East  Level FlightAware Approximate
21:11 30.2432 -90.3767 74° East  Level FlightAware Approximate
21:12 30.2764 -90.2425 74° East  Level FlightAware Approximate
21:13 30.3095 -90.1082 74° East  Level FlightAware Approximate
21:14 30.3425 -89.9738 74° East  Level FlightAware Approximate
21:15 30.3753 -89.8393 74° East  Level FlightAware Approximate
21:16 30.4080 -89.7047 74° East  Level FlightAware Approximate
21:17 30.4403 -89.5700 75° East  Level FlightAware Approximate
21:18 30.4715 -89.4349 75° East  Level FlightAware Approximate
21:19 30.5027 -89.2996 75° East  Level FlightAware Approximate
21:20 30.5336 -89.1643 75° East  Level FlightAware Approximate
21:21 30.5645 -89.0290 75° East  Level FlightAware Approximate
21:22 30.5951 -88.8935 75° East  Level FlightAware Approximate
21:23 30.6257 -88.7579 75° East  Level FlightAware Approximate
21:24 30.6561 -88.6223 75° East  Level FlightAware Approximate
21:25 30.6864 -88.4865 75° East  Level FlightAware Approximate
21:26 30.7165 -88.3507 76° East  Level FlightAware Approximate
21:27 30.7959 -88.2452 49° Northeast  Level FlightAware Approximate
21:28 30.8755 -88.1397 49° Northeast  Level FlightAware Approximate
21:29 30.9550 -88.0340 49° Northeast  Level FlightAware Approximate
21:30 31.0344 -87.9281 49° Northeast  Level FlightAware Approximate
21:31 31.1137 -87.8220 49° Northeast  Level FlightAware Approximate
21:32 31.1929 -87.7158 49° Northeast  Level FlightAware Approximate
21:33 31.2717 -87.6090 52° Northeast  Level FlightAware Approximate
21:34 31.3468 -87.4986 49° Northeast  Level FlightAware Approximate
21:35 31.4262 -87.3923 49° Northeast  Level FlightAware Approximate
21:36 31.5055 -87.2857 49° Northeast  Level FlightAware Approximate
21:37 31.5847 -87.1790 49° Northeast  Level FlightAware Approximate
21:38 31.6638 -87.0721 49° Northeast  Level FlightAware Approximate
21:39 31.7429 -86.9651 49° Northeast  Level FlightAware Approximate
21:40 31.8218 -86.8578 49° Northeast  Level FlightAware Approximate
21:41 31.9007 -86.7504 49° Northeast  Level FlightAware Approximate
21:42 31.9794 -86.6427 49° Northeast  Level FlightAware Approximate
21:43 32.0581 -86.5349 49° Northeast  Level FlightAware Approximate
21:44 32.1367 -86.4269 49° Northeast  Level FlightAware Approximate
21:45 32.2151 -86.3188 49° Northeast  Level FlightAware Approximate
21:46 32.2899 -86.2068 52° Northeast  Level FlightAware Approximate
21:47 32.3647 -86.0949 52° Northeast  Level FlightAware Approximate
21:48 32.4395 -85.9828 52° Northeast  Level FlightAware Approximate
21:49 32.5142 -85.8706 52° Northeast  Level FlightAware Approximate
21:50 32.5888 -85.7582 52° Northeast  Level FlightAware Approximate
21:51 32.6633 -85.6456 52° Northeast  Level FlightAware Approximate
21:52 32.7377 -85.5328 52° Northeast  Level FlightAware Approximate
21:53 32.8120 -85.4198 52° Northeast  Level FlightAware Approximate
21:54 32.8862 -85.3067 52° Northeast  Level FlightAware Approximate
21:55 32.9603 -85.1933 52° Northeast  Level FlightAware Approximate
21:56 33.0343 -85.0798 52° Northeast  Level FlightAware Approximate
21:57 33.1082 -84.9660 52° Northeast  Level FlightAware Approximate
21:58 33.1820 -84.8521 52° Northeast  Level FlightAware Approximate
21:59 33.2594 -84.7416 50° Northeast  Level FlightAware Approximate
22:00 33.3369 -84.6310 50° Northeast  Level FlightAware Approximate
22:01 33.4142 -84.5202 50° Northeast  Level FlightAware Approximate
22:02 33.4864 -84.4044 53° Northeast  Level FlightAware Approximate
22:03 33.5583 -84.2882 53° Northeast  Level FlightAware Approximate
22:04 33.6301 -84.1719 53° Northeast  Level FlightAware Approximate
22:05 33.7027 -84.0562 53° Northeast  Level FlightAware Approximate
22:06 33.7752 -83.9403 53° Northeast  Level FlightAware Approximate
22:07 33.8476 -83.8242 53° Northeast  Level FlightAware Approximate
22:08 33.9197 -83.7077 53° Northeast  Level FlightAware Approximate
22:09 33.9915 -83.5910 53° Northeast  Level FlightAware Approximate
22:10 34.0648 -83.4754 52° Northeast  Level FlightAware Approximate
22:11 34.1389 -83.3605 52° Northeast  Level FlightAware Approximate
22:12 34.2129 -83.2454 52° Northeast  Level FlightAware Approximate
22:13 34.2867 -83.1300 52° Northeast  Level FlightAware Approximate
22:14 34.3605 -83.0145 52° Northeast  Level FlightAware Approximate
22:15 34.4341 -82.8987 53° Northeast  Level FlightAware Approximate
22:16 34.5064 -82.7816 53° Northeast  Level FlightAware Approximate
22:17 34.5786 -82.6644 53° Northeast  Level FlightAware Approximate
22:18 34.6507 -82.5469 53° Northeast  Level FlightAware Approximate
22:19 34.7227 -82.4292 53° Northeast  Level FlightAware Approximate
22:20 34.7945 -82.3113 53° Northeast  Level FlightAware Approximate
22:21 34.8663 -82.1932 53° Northeast  Level FlightAware Approximate
22:22 34.9379 -82.0749 54° Northeast  Level FlightAware Approximate
22:23 35.0094 -81.9564 54° Northeast  Level FlightAware Approximate
22:24 35.0754 -81.8332 58° Northeast  Level FlightAware Approximate
22:25 35.1385 -81.7076 58° Northeast  Level FlightAware Approximate
22:26 35.2014 -81.5817 58° Northeast  Level FlightAware Approximate
22:27 35.2643 -81.4557 59° Northeast  Level FlightAware Approximate
22:28 35.3270 -81.3295 59° Northeast  Level FlightAware Approximate
22:29 35.3929 -81.2057 57° Northeast  Level FlightAware Approximate
22:30 35.4591 -81.0819 57° Northeast  Level FlightAware Approximate
22:31 35.5251 -80.9580 57° Northeast  Level FlightAware Approximate
22:32 35.5910 -80.8339 57° Northeast  Level FlightAware Approximate
22:33 35.6568 -80.7095 57° Northeast  Level FlightAware Approximate
22:34 35.7225 -80.5850 57° Northeast  Level FlightAware Approximate
22:35 35.7880 -80.4602 57° Northeast  Level FlightAware Approximate
22:36 35.8535 -80.3353 57° Northeast  Level FlightAware Approximate
22:37 35.9187 -80.2101 57° Northeast  Level FlightAware Approximate
22:38 35.9808 -80.0824 61° Northeast  Level FlightAware Approximate
22:39 36.0414 -79.9538 52° Northeast  Level FlightAware Approximate
22:40 36.1152 -79.8357 52° Northeast  Level FlightAware Approximate
22:41 36.1839 -79.7130 55° Northeast  Level FlightAware Approximate
22:42 36.2523 -79.5899 55° Northeast  Level FlightAware Approximate
22:43 36.3207 -79.4666 55° Northeast  Level FlightAware Approximate
22:44 36.3874 -79.3419 58° Northeast  Level FlightAware Approximate
22:45 36.4594 -79.2326 56° Northeast  Level FlightAware Approximate
22:46 36.5265 -79.1079 56° Northeast  Level FlightAware Approximate
22:47 36.5934 -78.9830 56° Northeast  Level FlightAware Approximate
22:48 36.6603 -78.8579 56° Northeast  Level FlightAware Approximate
22:49 36.7258 -78.7317 58° Northeast  Level FlightAware Approximate
22:50 36.7902 -78.6044 55° Northeast  Level FlightAware Approximate
22:51 36.8590 -78.4808 55° Northeast  Level FlightAware Approximate
22:52 36.9278 -78.3568 55° Northeast  Level FlightAware Approximate
22:53 37.0028 -78.2398 53° Northeast  Level FlightAware Approximate
22:54 37.0972 -78.1477 34° Northeast  Level FlightAware Approximate
22:55 37.1986 -78.0658 32° Northeast  Level FlightAware Approximate
22:56 37.3010 -77.9859 32° Northeast  Level FlightAware Approximate
22:57 37.4034 -77.9057 32° Northeast  Level FlightAware Approximate
22:58 37.5057 -77.8253 32° Northeast  Level FlightAware Approximate
22:59 37.6158 -77.7634 23° Northeast  Level FlightAware Approximate
23:00 37.7267 -77.7036 23° Northeast  Level FlightAware Approximate
23:01 37.8337 -77.6333 North  Level FlightAware Approximate
23:02 37.9417 -77.5716 25° Northeast  Level FlightAware Approximate
23:03 38.0534 -77.5141 31° Northeast  Level FlightAware Approximate